Time;durP1;ratioP1;P1;durP2;ratioP2;P2;SDS_P1;SDS_P2;PMS_P1;PMS_P2;Temp;Humidity;BMP_temperature;BMP_pressure;BME280_temperature;BME280_humidity;BME280_pressure;Samples;Min_cycle;Max_cycle;Signal;HPM_P1;HPM_P2
2022/04/04 00:00:47;;;;;;;;;;;0.10;99.90;;;-1.84;100.00;101573.28;2570143;30;139226;-41
2022/04/04 00:03:14;;;;;;;;;;;0.00;99.90;;;-1.85;100.00;101563.56;2569682;30;137065;-41
2022/04/04 00:05:42;;;;;;;;;;;0.00;99.90;;;-1.83;100.00;101565.13;2567330;30;138450;-41
2022/04/04 00:08:10;;;;;;;;;;;0.00;99.90;;;-1.89;100.00;101557.56;2570878;30;137120;-44
2022/04/04 00:10:40;;;;;;;;;;;0.00;99.90;;;-1.88;100.00;101568.13;2569476;30;140388;-41
2022/04/04 00:13:07;;;;;;;;;;;0.00;99.90;;;-1.90;100.00;101571.91;2570316;30;137099;-43
2022/04/04 00:15:35;;;;;;;;;;;0.00;99.90;;;-1.93;100.00;101556.94;2570182;30;138289;-41
2022/04/04 00:18:06;;;;;;;;;;;-0.10;99.90;;;-1.96;100.00;101561.66;2569105;30;137912;-41
2022/04/04 00:20:34;;;;;;;;;;;-0.10;99.90;;;-2.00;100.00;101553.00;2570056;30;138277;-45
2022/04/04 00:23:02;;;;;;;;;;;-0.10;99.90;;;-2.00;100.00;101554.81;2565621;30;137154;-40
2022/04/04 00:25:29;;;;;;;;;;;-0.10;99.90;;;-2.03;100.00;101545.22;2570192;30;139075;-41
2022/04/04 00:27:57;;;;;;;;;;;-0.10;99.90;;;-2.05;100.00;101547.97;2568271;30;138174;-41
2022/04/04 00:30:24;;;;;;;;;;;-0.20;99.90;;;-2.04;100.00;101551.53;2569843;30;139046;-42
2022/04/04 00:32:52;;;;;;;;;;;-0.20;99.90;;;-2.06;100.00;101546.28;2570498;30;137120;-39
2022/04/04 00:35:19;;;;;;;;;;;-0.20;99.90;;;-2.07;100.00;101541.91;2568894;30;138400;-41
2022/04/04 00:37:46;;;;;;;;;;;-0.20;99.90;;;-2.09;100.00;101543.81;2570425;30;137452;-44
2022/04/04 00:40:14;;;;;;;;;;;-0.20;99.90;;;-2.09;100.00;101540.31;2568882;30;138088;-41
2022/04/04 00:42:41;;;;;;;;;;;-0.20;99.90;;;-2.07;100.00;101541.06;2568965;30;137062;-41
2022/04/04 00:45:09;;;;;;;;;;;-0.20;99.90;;;-2.12;100.00;101545.84;2568246;30;139446;-41
2022/04/04 00:47:36;;;;;;;;;;;-0.20;99.90;;;-2.13;100.00;101537.00;2570697;30;137913;-41
2022/04/04 00:50:04;;;;;;;;;;;-0.20;99.90;;;-2.12;100.00;101530.69;2568720;30;138927;-41
2022/04/04 00:52:32;;;;;;;;;;;-0.20;99.90;;;-2.11;100.00;101520.84;2568779;30;138584;-41
2022/04/04 00:55:00;;;;;;;;;;;-0.20;99.90;;;-2.03;100.00;101521.13;2569979;30;138174;-43
2022/04/04 00:57:32;;;;;;;;;;;-0.20;99.90;;;-1.92;100.00;101529.22;2570018;30;137072;-43
2022/04/04 00:59:59;;;;;;;;;;;-0.10;99.90;;;-1.91;100.00;101528.25;2569758;30;138261;-41
2022/04/04 01:02:27;;;;;;;;;;;-0.10;99.90;;;-1.93;100.00;101515.97;2570723;30;137914;-41
2022/04/04 01:04:54;;;;;;;;;;;-0.10;99.90;;;-1.96;100.00;101506.34;2569681;30;137832;-41
2022/04/04 01:07:22;;;;;;;;;;;-0.10;99.90;;;-1.92;100.00;101510.50;2569947;30;137314;-41
2022/04/04 01:09:50;;;;;;;;;;;-0.10;99.90;;;-1.93;100.00;101513.28;2569698;30;138317;-41
2022/04/04 01:12:21;;;;;;;;;;;-0.10;99.90;;;-1.98;100.00;101497.56;2570888;30;137122;-41
2022/04/04 01:14:49;;;;;;;;;;;-0.10;99.90;;;-1.90;100.00;101508.56;2567512;30;139303;-41
2022/04/04 01:17:21;;;;;;;;;;;-0.10;99.90;;;-1.86;100.00;101497.63;2572579;30;137767;-42
2022/04/04 01:19:49;;;;;;;;;;;0.00;99.90;;;-1.90;100.00;101497.84;2570059;30;138821;-42
2022/04/04 01:22:16;;;;;;;;;;;0.00;99.90;;;-1.91;100.00;101495.31;2569383;30;137158;-41
2022/04/04 01:24:45;;;;;;;;;;;0.00;99.90;;;-1.91;100.00;101489.97;2569598;30;138248;-42
2022/04/04 01:27:13;;;;;;;;;;;0.00;99.90;;;-1.89;100.00;101478.16;2567756;30;137311;-41
2022/04/04 01:32:26;;;;;;;;;;;0.00;99.90;;;-1.86;100.00;101476.22;2564955;30;156177;-40
2022/04/04 01:34:54;;;;;;;;;;;0.00;99.90;;;-1.78;100.00;101468.50;2569127;30;137234;-40
2022/04/04 01:37:21;;;;;;;;;;;0.00;99.90;;;-1.75;100.00;101473.59;2567084;30;137173;-39
2022/04/04 01:39:48;;;;;;;;;;;0.10;99.90;;;-1.68;100.00;101471.31;2568711;30;137786;-40
2022/04/04 01:42:16;;;;;;;;;;;0.10;99.90;;;-1.61;100.00;101465.38;2568866;30;138155;-40
2022/04/04 01:44:43;;;;;;;;;;;0.20;99.90;;;-1.55;100.00;101463.22;2569207;30;137101;-39
2022/04/04 01:47:11;;;;;;;;;;;0.20;99.90;;;-1.56;100.00;101461.50;2569210;30;137400;-39
2022/04/04 01:49:38;;;;;;;;;;;0.20;99.90;;;-1.56;100.00;101456.16;2568984;30;137856;-39
2022/04/04 01:52:05;;;;;;;;;;;0.30;99.90;;;-1.50;100.00;101453.84;2567805;30;138295;-39
2022/04/04 01:54:33;;;;;;;;;;;0.30;99.90;;;-1.46;100.00;101447.31;2566682;30;137043;-39
2022/04/04 01:57:07;;;;;;;;;;;0.30;99.90;;;-1.42;100.00;101455.09;2568318;30;138171;-40
2022/04/04 01:59:34;;;;;;;;;;;0.40;99.90;;;-1.35;100.00;101449.13;2569643;30;137912;-40
2022/04/04 02:02:02;;;;;;;;;;;0.40;99.90;;;-1.35;100.00;101435.72;2568539;30;137345;-39
2022/04/04 02:04:30;;;;;;;;;;;0.40;99.90;;;-1.35;100.00;101427.72;2568925;30;137112;-39
2022/04/04 02:06:57;;;;;;;;;;;0.40;99.90;;;-1.31;100.00;101423.84;2567476;30;139224;-40
2022/04/04 02:09:25;;;;;;;;;;;0.50;99.90;;;-1.28;100.00;101422.72;2567433;30;136993;-39
2022/04/04 02:11:52;;;;;;;;;;;0.50;99.90;;;-1.27;100.00;101413.72;2567814;30;138224;-40
2022/04/04 02:14:19;;;;;;;;;;;0.50;99.90;;;-1.20;100.00;101416.78;2568798;30;136980;-40
2022/04/04 02:16:47;;;;;;;;;;;0.60;99.90;;;-1.17;100.00;101414.72;2567686;30;138495;-39
2022/04/04 02:19:17;;;;;;;;;;;0.60;99.90;;;-1.06;100.00;101415.69;2568703;30;137830;-39
2022/04/04 02:21:45;;;;;;;;;;;0.70;99.90;;;-1.06;100.00;101400.47;2568957;30;138601;-39
2022/04/04 02:24:12;;;;;;;;;;;0.70;99.90;;;-0.97;100.00;101403.41;2567031;30;137418;-39
2022/04/04 02:26:41;;;;;;;;;;;0.70;99.90;;;-0.85;100.00;101404.25;2568259;30;138338;-40
2022/04/04 02:29:08;;;;;;;;;;;0.80;99.90;;;-0.81;100.00;101394.97;2569252;30;137951;-39
2022/04/04 02:31:36;;;;;;;;;;;0.90;99.90;;;-0.73;100.00;101388.03;2566986;30;137303;-39
2022/04/04 02:34:04;;;;;;;;;;;1.00;99.90;;;-0.67;100.00;101383.13;2568791;30;137032;-39
2022/04/04 02:36:32;;;;;;;;;;;1.00;99.90;;;-0.68;100.00;101378.75;2567449;30;138270;-39
2022/04/04 02:39:00;;;;;;;;;;;1.10;99.90;;;-0.64;100.00;101377.53;2568614;30;136876;-39
2022/04/04 02:41:27;;;;;;;;;;;1.10;99.90;;;-0.68;100.00;101378.75;2566106;30;138784;-39
2022/04/04 02:43:55;;;;;;;;;;;1.10;99.90;;;-0.66;100.00;101374.13;2568633;30;137055;-40
2022/04/04 02:46:22;;;;;;;;;;;1.10;99.90;;;-0.63;100.00;101364.00;2568934;30;137379;-39
2022/04/04 02:48:50;;;;;;;;;;;1.10;99.90;;;-0.61;100.00;101364.72;2567423;30;137089;-39
2022/04/04 02:51:17;;;;;;;;;;;1.10;99.90;;;-0.56;100.00;101363.50;2569150;30;139217;-39
2022/04/04 02:53:44;;;;;;;;;;;1.20;99.90;;;-0.61;100.00;101356.69;2568673;30;136895;-39
2022/04/04 02:56:30;;;;;;;;;;;1.20;99.90;;;-0.56;100.00;101347.41;2567558;30;138217;-40
2022/04/04 02:59:01;;;;;;;;;;;1.20;99.90;;;-0.61;100.00;101339.75;2568112;30;137087;-40
2022/04/04 03:01:30;;;;;;;;;;;1.20;99.90;;;-0.53;100.00;101334.63;2569771;30;139141;-39
2022/04/04 03:03:58;;;;;;;;;;;1.20;99.90;;;-0.48;100.00;101327.03;2566527;30;137302;-39
2022/04/04 03:06:26;;;;;;;;;;;1.30;99.90;;;-0.51;100.00;101324.63;2567126;30;137664;-40
2022/04/04 03:08:53;;;;;;;;;;;1.20;99.90;;;-0.53;100.00;101326.56;2567593;30;137922;-40
2022/04/04 03:11:21;;;;;;;;;;;1.20;99.90;;;-0.47;100.00;101317.16;2568806;30;137344;-39
2022/04/04 03:13:48;;;;;;;;;;;1.30;99.90;;;-0.44;100.00;101314.22;2568696;30;138112;-39
2022/04/04 03:16:16;;;;;;;;;;;1.30;99.90;;;-0.46;100.00;101317.03;2566443;30;138034;-39
2022/04/04 03:18:43;;;;;;;;;;;1.30;99.90;;;-0.40;100.00;101315.66;2568082;30;137141;-39
2022/04/04 03:21:12;;;;;;;;;;;1.30;99.90;;;-0.35;100.00;101312.59;2567439;30;139160;-40
2022/04/04 03:23:42;;;;;;;;;;;1.40;99.90;;;-0.35;100.00;101313.47;2567697;30;137289;-39
2022/04/04 03:26:09;;;;;;;;;;;1.40;99.90;;;-0.40;100.00;101304.94;2565198;30;139308;-39
2022/04/04 03:28:38;;;;;;;;;;;1.40;99.90;;;-0.40;100.00;101315.66;2567653;30;136813;-40
2022/04/04 03:31:06;;;;;;;;;;;1.30;99.90;;;-0.40;100.00;101304.09;2568288;30;138813;-39
2022/04/04 03:33:36;;;;;;;;;;;1.40;99.90;;;-0.40;100.00;101304.09;2568711;30;136971;-39
2022/04/04 03:36:04;;;;;;;;;;;1.30;99.90;;;-0.45;100.00;101291.94;2567542;30;138388;-40
2022/04/04 03:38:33;;;;;;;;;;;1.30;99.90;;;-0.35;100.00;101286.66;2569557;30;137163;-39
2022/04/04 03:41:00;;;;;;;;;;;1.40;99.90;;;-0.25;100.00;101278.66;2568802;30;138221;-39
2022/04/04 03:43:28;;;;;;;;;;;1.40;99.90;;;-0.27;100.00;101272.56;2568672;30;137916;-39
2022/04/04 03:45:55;;;;;;;;;;;1.50;99.90;;;-0.18;100.00;101271.81;2567233;30;137524;-39
2022/04/04 03:48:23;;;;;;;;;;;1.50;99.90;;;-0.16;100.00;101264.47;2568706;30;137023;-39
2022/04/04 03:50:54;;;;;;;;;;;1.50;99.90;;;-0.14;100.00;101261.63;2568222;30;138612;-39
2022/04/04 03:53:22;;;;;;;;;;;1.60;99.90;;;-0.09;100.00;101248.69;2568931;30;137767;-40
2022/04/04 03:55:50;;;;;;;;;;;1.60;99.90;;;-0.03;100.00;101252.66;2568668;30;137445;-39
2022/04/04 03:58:18;;;;;;;;;;;1.70;99.90;;;0.00;100.00;101247.06;2566323;30;137513;-39
2022/04/04 04:00:45;;;;;;;;;;;1.70;99.90;;;0.06;100.00;101240.28;2568587;30;138398;-39
2022/04/04 04:03:13;;;;;;;;;;;1.70;99.90;;;0.07;100.00;101236.63;2568645;30;137215;-39
2022/04/04 04:05:40;;;;;;;;;;;1.80;99.90;;;0.06;100.00;101233.09;2565253;30;138310;-39
2022/04/04 04:08:08;;;;;;;;;;;1.80;99.90;;;0.09;100.00;101234.66;2569090;30;136968;-39
2022/04/04 04:10:36;;;;;;;;;;;1.80;99.90;;;0.11;100.00;101222.81;2567593;30;138984;-39
2022/04/04 04:13:05;;;;;;;;;;;1.80;99.90;;;0.08;100.00;101214.19;2568642;30;137882;-39
2022/04/04 04:15:33;;;;;;;;;;;1.80;99.90;;;0.09;100.00;101208.69;2566897;30;138837;-39
2022/04/04 04:18:00;;;;;;;;;;;1.80;99.90;;;0.08;100.00;101195.41;2568604;30;137736;-39
2022/04/04 04:20:31;;;;;;;;;;;1.80;99.90;;;0.07;100.00;101210.66;2566191;30;138829;-39
2022/04/04 04:23:04;;;;;;;;;;;1.80;99.90;;;0.05;100.00;101209.94;2565952;30;137139;-39
2022/04/04 04:25:33;;;;;;;;;;;1.80;99.90;;;0.01;100.00;101205.84;2567685;30;138484;-39
2022/04/04 04:28:02;;;;;;;;;;;1.80;99.90;;;0.07;100.00;101205.28;2567875;30;137344;-39
2022/04/04 04:30:30;;;;;;;;;;;1.80;99.90;;;0.14;100.00;101205.63;2568172;30;139224;-39
2022/04/04 04:32:59;;;;;;;;;;;1.80;99.90;;;0.13;100.00;101201.19;2568157;30;137235;-39
2022/04/04 04:35:26;;;;;;;;;;;1.80;99.90;;;0.12;100.00;101186.09;2566950;30;138608;-39
2022/04/04 04:37:54;;;;;;;;;;;1.90;99.90;;;0.14;100.00;101187.66;2567736;30;136843;-40
2022/04/04 04:40:22;;;;;;;;;;;1.90;99.90;;;0.21;100.00;101187.97;2567585;30;137189;-39
2022/04/04 04:42:51;;;;;;;;;;;1.90;99.90;;;0.17;100.00;101178.50;2569266;30;136899;-39
2022/04/04 04:45:18;;;;;;;;;;;1.90;99.90;;;0.19;100.00;101179.22;2568600;30;138456;-39
2022/04/04 04:47:47;;;;;;;;;;;1.90;99.90;;;0.26;100.00;101175.00;2566240;30;137809;-39
2022/04/04 04:50:18;;;;;;;;;;;1.90;99.90;;;0.30;100.00;101167.53;2568262;30;138521;-39
2022/04/04 04:52:46;;;;;;;;;;;2.00;99.90;;;0.31;100.00;101155.81;2568003;30;137387;-39
2022/04/04 04:55:15;;;;;;;;;;;2.00;99.90;;;0.38;100.00;101159.63;2568054;30;137407;-39
2022/04/04 04:57:43;;;;;;;;;;;2.10;99.90;;;0.34;100.00;101155.53;2567924;30;137291;-39
2022/04/04 05:00:13;;;;;;;;;;;2.10;99.90;;;0.36;100.00;101147.31;2567929;30;138984;-39
2022/04/04 05:02:41;;;;;;;;;;;2.00;99.90;;;0.39;100.00;101147.03;2567696;30;137314;-40
2022/04/04 05:05:09;;;;;;;;;;;2.10;99.90;;;0.42;100.00;101141.41;2567910;30;138552;-39
2022/04/04 05:07:37;;;;;;;;;;;2.10;99.90;;;0.48;100.00;101148.91;2568182;30;138072;-39
2022/04/04 05:10:04;;;;;;;;;;;2.20;99.90;;;0.58;99.47;101143.56;2566489;30;138642;-39
2022/04/04 05:12:32;;;;;;;;;;;2.20;99.90;;;0.61;98.57;101137.06;2567851;30;137566;-39
2022/04/04 05:15:00;;;;;;;;;;;2.30;99.90;;;0.54;99.82;101142.97;2567900;30;138274;-39
2022/04/04 05:17:27;;;;;;;;;;;2.30;99.90;;;0.63;99.01;101141.31;2568053;30;136798;-39
2022/04/04 05:19:58;;;;;;;;;;;2.30;99.90;;;0.66;98.36;101145.53;2568448;30;138970;-39
2022/04/04 05:22:25;;;;;;;;;;;2.30;99.90;;;0.65;98.74;101135.78;2568242;30;138131;-39
2022/04/04 05:24:53;;;;;;;;;;;2.30;99.90;;;0.66;98.42;101121.38;2568450;30;138498;-39
2022/04/04 05:27:20;;;;;;;;;;;2.40;99.90;;;0.71;98.05;101138.75;2568284;30;137093;-39
2022/04/04 05:29:48;;;;;;;;;;;2.40;99.90;;;0.77;98.07;101132.00;2567670;30;138584;-39
2022/04/04 05:32:15;;;;;;;;;;;2.40;99.90;;;0.78;97.91;101131.00;2565933;30;136732;-39
2022/04/04 05:34:42;;;;;;;;;;;2.40;99.90;;;0.85;97.85;101126.75;2566360;30;138125;-40
2022/04/04 05:37:10;;;;;;;;;;;2.50;99.90;;;0.96;97.23;101122.25;2568203;30;137394;-39
2022/04/04 05:39:37;;;;;;;;;;;2.60;99.90;;;0.93;97.81;101119.81;2569055;30;138419;-40
2022/04/04 05:42:05;;;;;;;;;;;2.60;99.90;;;0.97;97.32;101114.03;2566586;30;137281;-39
2022/04/04 05:44:33;;;;;;;;;;;2.60;99.90;;;0.99;97.70;101109.34;2567666;30;138050;-39
2022/04/04 05:47:00;;;;;;;;;;;2.60;99.90;;;1.02;97.80;101112.75;2567786;30;136663;-40
2022/04/04 05:49:27;;;;;;;;;;;2.70;99.90;;;1.10;97.59;101113.72;2567172;30;138094;-39
2022/04/04 05:51:55;;;;;;;;;;;2.70;99.90;;;1.13;97.37;101104.53;2567777;30;137403;-40
2022/04/04 05:54:31;;;;;;;;;;;2.80;99.90;;;1.19;96.74;101103.97;2568376;30;136813;-39
2022/04/04 05:56:58;;;;;;;;;;;2.80;99.90;;;1.26;95.55;101099.69;2567889;30;137138;-39
2022/04/04 05:59:26;;;;;;;;;;;2.90;99.90;;;1.33;94.53;101096.47;2567323;30;138293;-40
2022/04/04 06:01:55;;;;;;;;;;;2.90;99.90;;;1.36;95.29;101086.25;2566810;30;136969;-39
2022/04/04 06:04:23;;;;;;;;;;;3.00;99.90;;;1.38;94.16;101080.72;2568739;30;136549;-40
2022/04/04 06:06:50;;;;;;;;;;;3.00;99.90;;;1.43;94.59;101079.28;2568921;30;137369;-39
2022/04/04 06:09:18;;;;;;;;;;;3.10;99.90;;;1.43;94.82;101070.38;2568271;30;138345;-39
2022/04/04 06:11:45;;;;;;;;;;;3.10;99.90;;;1.46;94.69;101067.38;2570003;30;137093;-39
2022/04/04 06:14:12;;;;;;;;;;;3.10;99.90;;;1.51;93.62;101061.59;2569678;30;138202;-39
2022/04/04 06:16:43;;;;;;;;;;;3.10;99.90;;;1.51;94.05;101062.41;2568217;30;137273;-39
2022/04/04 06:19:16;;;;;;;;;;;3.20;99.90;;;1.61;92.72;101056.16;2568819;30;138174;-39
2022/04/04 06:21:44;;;;;;;;;;;3.20;99.90;;;1.64;93.19;101056.69;2569150;30;137920;-39
2022/04/04 06:24:11;;;;;;;;;;;3.20;99.90;;;1.69;92.88;101048.19;2566576;30;138240;-40
2022/04/04 06:26:39;;;;;;;;;;;3.30;99.90;;;1.76;92.81;101046.59;2569603;30;137248;-39
2022/04/04 06:29:09;;;;;;;;;;;3.40;99.90;;;1.82;92.99;101037.91;2567289;30;139159;-39
2022/04/04 06:31:37;;;;;;;;;;;3.40;99.90;;;1.90;93.65;101031.78;2568470;30;137687;-39
2022/04/04 06:34:05;;;;;;;;;;;3.50;99.90;;;1.99;92.06;101030.06;2569810;30;137410;-39
2022/04/04 06:36:32;;;;;;;;;;;3.60;99.90;;;2.09;91.33;101036.22;2568577;30;137091;-39
2022/04/04 06:39:00;;;;;;;;;;;3.70;99.90;;;2.21;91.04;101022.56;2569310;30;137618;-40
2022/04/04 06:41:27;;;;;;;;;;;3.70;99.90;;;2.39;90.57;101020.72;2565065;30;137385;-39
2022/04/04 06:43:54;;;;;;;;;;;3.90;99.90;;;2.57;90.37;101006.38;2567492;30;138385;-39
2022/04/04 06:46:22;;;;;;;;;;;4.00;99.90;;;2.77;89.96;100998.13;2569376;30;136928;-39
2022/04/04 06:48:51;;;;;;;;;;;4.20;99.90;;;2.98;89.53;101005.84;2566646;30;138288;-40
2022/04/04 06:51:19;;;;;;;;;;;4.40;99.90;;;3.20;89.16;100993.69;2568365;30;136982;-40
2022/04/04 06:53:47;;;;;;;;;;;4.60;99.90;;;3.44;88.30;100981.31;2568830;30;137705;-40
2022/04/04 06:56:14;;;;;;;;;;;4.80;99.90;;;3.55;85.77;100978.34;2568172;30;137798;-40
2022/04/04 06:58:41;;;;;;;;;;;5.00;99.90;;;3.65;86.00;100977.38;2569358;30;138987;-40
2022/04/04 07:01:09;;;;;;;;;;;5.10;99.90;;;3.73;87.19;100964.75;2568108;30;137025;-40
2022/04/04 07:03:37;;;;;;;;;;;5.20;99.90;;;3.78;85.05;100968.81;2566334;30;137290;-40
2022/04/04 07:06:05;;;;;;;;;;;5.30;99.90;;;3.81;84.06;100969.34;2567683;30;137747;-39
2022/04/04 07:08:33;;;;;;;;;;;5.30;99.90;;;3.83;84.79;100970.00;2568940;30;139291;-39
2022/04/04 07:11:01;;;;;;;;;;;5.40;99.90;;;3.91;83.73;100960.25;2566902;30;138254;-39
2022/04/04 07:13:31;;;;;;;;;;;5.40;99.90;;;4.01;83.96;100953.69;2567244;30;137444;-40
2022/04/04 07:15:58;;;;;;;;;;;5.50;99.90;;;4.03;83.41;100945.44;2569194;30;137190;-39
2022/04/04 07:18:26;;;;;;;;;;;5.50;99.90;;;4.14;83.93;100949.66;2567555;30;138546;-40
2022/04/04 07:20:54;;;;;;;;;;;5.60;99.90;;;4.22;84.24;100936.16;2568254;30;136851;-40
2022/04/04 07:23:21;;;;;;;;;;;5.70;99.90;;;4.25;82.71;100932.28;2568901;30;137953;-39
2022/04/04 07:25:49;;;;;;;;;;;5.70;99.90;;;4.33;82.31;100932.28;2568737;30;137201;-40
2022/04/04 07:28:17;;;;;;;;;;;5.80;99.90;;;4.35;83.33;100934.81;2569080;30;137283;-40
2022/04/04 07:30:44;;;;;;;;;;;5.80;99.90;;;4.34;82.46;100901.56;2578308;30;136950;-39
2022/04/04 07:33:15;;;;;;;;;;;5.90;99.90;;;4.51;81.40;100929.41;2569261;30;138717;-41
2022/04/04 07:35:44;;;;;;;;;;;6.00;99.90;;;4.60;81.66;100928.38;2569924;30;137080;-41
2022/04/04 07:38:11;;;;;;;;;;;6.10;99.90;;;4.68;80.84;100918.59;2568535;30;137272;-41
2022/04/04 07:40:40;;;;;;;;;;;6.20;99.90;;;4.73;79.81;100917.03;2569810;30;136608;-41
2022/04/04 07:43:08;;;;;;;;;;;6.20;99.90;;;4.85;81.26;100911.28;2568343;30;138265;-41
2022/04/04 07:45:36;;;;;;;;;;;6.30;99.90;;;4.87;78.14;100910.09;2569309;30;137262;-42
2022/04/04 07:48:10;;;;;;;;;;;6.40;99.90;;;4.94;78.98;100902.13;2570477;30;138102;-41
2022/04/04 07:50:38;;;;;;;;;;;6.40;99.90;;;4.94;78.93;100888.59;2568693;30;137023;-42
2022/04/04 07:53:06;;;;;;;;;;;6.50;99.90;;;5.09;80.36;100893.31;2568264;30;138327;-42
2022/04/04 07:55:33;;;;;;;;;;;6.50;99.90;;;5.16;78.96;100895.13;2570045;30;137230;-42
2022/04/04 07:58:01;;;;;;;;;;;6.60;99.90;;;5.11;76.21;100869.63;2570745;30;139229;-42
2022/04/04 08:00:31;;;;;;;;;;;6.70;99.90;;;5.28;77.19;100887.47;2568168;30;137733;-41
2022/04/04 08:02:59;;;;;;;;;;;6.70;99.90;;;5.28;77.12;100881.22;2571180;30;138419;-41
2022/04/04 08:05:26;;;;;;;;;;;6.80;99.90;;;5.25;75.65;100876.16;2569618;30;136952;-42
2022/04/04 08:07:54;;;;;;;;;;;6.80;99.90;;;5.30;75.80;100877.34;2570118;30;138395;-41
2022/04/04 08:10:25;;;;;;;;;;;6.80;99.90;;;5.39;75.39;100878.09;2568898;30;136847;-41
2022/04/04 08:12:53;;;;;;;;;;;6.90;99.90;;;5.49;76.37;100868.94;2569877;30;138131;-41
2022/04/04 08:15:20;;;;;;;;;;;6.90;99.90;;;5.62;75.75;100871.91;2570220;30;136724;-41
2022/04/04 08:17:53;;;;;;;;;;;7.00;99.90;;;5.68;74.56;100875.75;2570143;30;138545;-41
2022/04/04 08:20:21;;;;;;;;;;;7.10;99.90;;;5.67;72.94;100865.97;2567045;30;137412;-41
2022/04/04 08:22:49;;;;;;;;;;;7.20;99.90;;;5.70;74.70;100861.03;2567839;30;139375;-41
2022/04/04 08:25:17;;;;;;;;;;;7.20;99.90;;;5.72;72.63;100861.69;2570520;30;137192;-41
2022/04/04 08:27:46;;;;;;;;;;;7.20;99.90;;;5.76;74.24;100854.03;2568873;30;138483;-41
2022/04/04 08:30:16;;;;;;;;;;;7.20;99.90;;;5.81;73.30;100854.34;2569573;30;137348;-42
2022/04/04 08:32:44;;;;;;;;;;;7.30;99.90;;;5.83;72.48;100857.72;2570850;30;138531;-41
2022/04/04 08:35:14;;;;;;;;;;;7.30;99.90;;;5.78;70.65;100841.16;2568152;30;138146;-41
2022/04/04 08:37:43;;;;;;;;;;;7.30;99.90;;;5.74;70.64;100837.13;2571937;30;137640;-42
2022/04/04 08:40:13;;;;;;;;;;;7.30;99.90;;;5.81;73.19;100843.50;2570325;30;137297;-41
2022/04/04 08:42:41;;;;;;;;;;;7.30;99.90;;;5.88;72.25;100832.81;2567890;30;138627;-41
2022/04/04 08:45:09;;;;;;;;;;;7.30;99.90;;;5.91;71.12;100824.31;2567943;30;138079;-41
2022/04/04 08:47:38;;;;;;;;;;;7.40;99.90;;;6.03;70.80;100831.03;2569129;30;139137;-41
2022/04/04 08:50:06;;;;;;;;;;;7.50;99.90;;;6.14;70.14;100810.78;2569214;30;136881;-42
2022/04/04 08:52:34;;;;;;;;;;;7.50;99.90;;;6.22;70.92;100807.13;2568067;30;138390;-41
2022/04/04 08:55:01;;;;;;;;;;;7.60;99.90;;;6.26;69.99;100807.63;2569066;30;137375;-41
2022/04/04 08:57:28;;;;;;;;;;;7.70;99.90;;;6.29;68.86;100808.09;2571728;30;138352;-41
2022/04/04 08:59:56;;;;;;;;;;;7.70;99.90;;;6.41;69.03;100800.38;2567786;30;137262;-41
2022/04/04 09:02:23;;;;;;;;;;;7.80;99.90;;;6.52;69.46;100798.22;2570501;30;138193;-41
2022/04/04 09:04:51;;;;;;;;;;;7.90;99.90;;;6.62;69.50;100794.19;2571312;30;138082;-42
2022/04/04 09:07:21;;;;;;;;;;;8.00;99.90;;;6.62;67.20;100779.78;2569138;30;138352;-41
2022/04/04 09:09:50;;;;;;;;;;;8.00;99.90;;;6.70;67.74;100776.16;2570003;30;137263;-41
2022/04/04 09:12:20;;;;;;;;;;;8.10;99.90;;;6.78;67.68;100767.06;2567913;30;138097;-41
2022/04/04 09:14:49;;;;;;;;;;;8.20;99.90;;;6.81;68.66;100763.97;2570636;30;136752;-41
2022/04/04 09:17:45;;;;;;;;;;;8.20;99.90;;;6.90;69.65;100755.56;2566548;30;138550;-41
2022/04/04 09:20:16;;;;;;;;;;;8.30;99.90;;;7.09;69.53;100760.56;2571003;30;137758;-41
2022/04/04 09:22:52;;;;;;;;;;;8.40;99.90;;;7.08;64.97;100746.16;2568990;30;138394;-46
2022/04/04 09:25:30;;;;;;;;;;;8.50;99.90;;;6.90;63.77;100743.88;2570566;30;137130;-41
2022/04/04 09:28:19;;;;;;;;;;;8.40;99.90;;;6.89;65.99;100745.75;2570122;30;138488;-41
2022/04/04 09:31:05;;;;;;;;;;;8.40;99.90;;;6.83;66.71;100751.06;2567196;30;137704;-41
2022/04/04 09:33:39;;;;;;;;;;;8.30;99.90;;;6.81;66.04;100737.72;2568753;30;137052;-41
2022/04/04 09:36:08;;;;;;;;;;;8.30;99.90;;;6.88;67.56;100730.50;2570466;30;137136;-42
2022/04/04 09:38:36;;;;;;;;;;;8.30;99.90;;;6.89;67.04;100725.91;2569810;30;138405;-41
2022/04/04 09:41:15;;;;;;;;;;;8.30;99.90;;;6.78;66.16;100720.97;2569667;30;137023;-42
2022/04/04 09:44:12;;;;;;;;;;;8.30;99.90;;;6.66;67.88;100707.91;2570120;30;139069;-41
2022/04/04 09:46:42;;;;;;;;;;;8.20;99.90;;;6.57;68.11;100718.03;2568500;30;137679;-43
2022/04/04 09:49:16;;;;;;;;;;;8.10;99.90;;;6.57;69.70;100711.75;2570693;30;138102;-41
2022/04/04 09:51:54;;;;;;;;;;;8.10;99.90;;;6.44;69.82;100713.25;2569734;30;137814;-41
2022/04/04 09:54:28;;;;;;;;;;;8.00;99.90;;;6.39;71.76;100696.72;2572492;30;138391;-41
2022/04/04 09:57:16;;;;;;;;;;;7.90;99.90;;;6.22;73.65;100690.63;2570352;30;137079;-41
2022/04/04 09:59:43;;;;;;;;;;;7.80;99.90;;;6.13;75.45;100692.63;2570590;30;137260;-41
2022/04/04 10:02:12;;;;;;;;;;;7.70;99.90;;;5.97;77.52;100690.91;2567904;30;137417;-41
2022/04/04 10:04:48;;;;;;;;;;;7.60;99.90;;;5.80;78.55;100683.97;2569363;30;138189;-41
2022/04/04 10:07:17;;;;;;;;;;;7.40;99.90;;;5.77;82.56;100685.16;2571372;30;137353;-41
2022/04/04 10:09:45;;;;;;;;;;;7.30;99.90;;;5.71;81.95;100681.34;2570795;30;138398;-42
2022/04/04 10:12:14;;;;;;;;;;;7.30;99.90;;;5.69;80.81;100661.72;2567391;30;137292;-41
2022/04/04 10:14:42;;;;;;;;;;;7.30;99.90;;;5.63;80.86;100673.28;2572445;30;138285;-41
2022/04/04 10:17:10;;;;;;;;;;;7.20;99.90;;;5.61;81.84;100667.22;2570974;30;137795;-40
2022/04/04 10:19:40;;;;;;;;;;;7.10;99.90;;;5.68;82.42;100672.75;2570690;30;137155;-41
2022/04/04 10:22:08;;;;;;;;;;;7.20;99.90;;;5.72;82.91;100669.50;2570403;30;138433;-41
2022/04/04 10:24:37;;;;;;;;;;;7.20;99.90;;;5.67;82.91;100662.94;2569675;30;137509;-41
2022/04/04 10:27:08;;;;;;;;;;;7.20;99.90;;;5.65;83.30;100670.41;2569396;30;138460;-42
2022/04/04 10:29:44;;;;;;;;;;;7.20;99.90;;;5.60;84.57;100666.38;2568813;30;138266;-41
2022/04/04 10:32:23;;;;;;;;;;;7.20;99.90;;;5.56;84.35;100662.34;2570126;30;138713;-41
2022/04/04 10:34:51;;;;;;;;;;;7.20;99.90;;;5.53;87.53;100656.47;2570158;30;138366;-41
2022/04/04 10:37:21;;;;;;;;;;;7.10;99.90;;;5.44;87.32;100653.00;2569768;30;137001;-40
2022/04/04 10:39:49;;;;;;;;;;;7.00;99.90;;;5.38;87.67;100643.72;2569212;30;137342;-41
2022/04/04 10:42:26;;;;;;;;;;;7.00;99.90;;;5.25;88.32;100647.06;2569977;30;137376;-45
2022/04/04 10:45:31;;;;;;;;;;;6.90;99.90;;;5.15;89.84;100638.34;2569487;30;136790;-41
2022/04/04 10:48:05;;;;;;;;;;;6.80;99.90;;;5.04;90.60;100642.31;2570971;30;137165;-40
2022/04/04 10:50:33;;;;;;;;;;;6.70;99.90;;;5.00;92.98;100632.91;2569228;30;139081;-40
2022/04/04 10:53:02;;;;;;;;;;;6.60;99.90;;;5.03;93.68;100637.94;2570514;30;136917;-41
2022/04/04 10:55:47;;;;;;;;;;;6.60;99.90;;;5.02;96.18;100645.19;2569386;30;138117;-41
2022/04/04 10:58:15;;;;;;;;;;;6.60;99.90;;;4.98;95.59;100622.25;2569867;30;137145;-40
2022/04/04 11:01:05;;;;;;;;;;;6.60;99.90;;;4.86;96.63;100635.34;2569412;30;138473;-40
2022/04/04 11:03:40;;;;;;;;;;;6.50;99.90;;;4.78;99.56;100629.19;2570642;30;137745;-40
2022/04/04 11:09:06;;;;;;;;;;;6.40;99.90;;;4.63;99.64;100629.94;2569191;30;137095;-40
2022/04/04 11:11:57;;;;;;;;;;;6.30;99.90;;;4.56;100.00;100626.25;2566630;30;138126;-40
2022/04/04 11:14:28;;;;;;;;;;;6.20;99.90;;;4.49;100.00;100619.84;2570795;30;137230;-41
2022/04/04 11:17:23;;;;;;;;;;;6.10;99.90;;;4.40;100.00;100619.91;2571262;30;138355;-40
2022/04/04 11:20:04;;;;;;;;;;;6.00;99.90;;;4.39;100.00;100606.59;2567660;30;136983;-40
2022/04/04 11:22:34;;;;;;;;;;;6.00;99.90;;;4.34;100.00;100617.94;2568950;30;138531;-40
2022/04/04 11:25:05;;;;;;;;;;;5.90;99.90;;;4.28;100.00;100624.03;2571344;30;136976;-40